Anita, Iowa
Current Conditions -  °F | °C
As of 2:15 AM on Monday 26 Jan 2015 (Local Time) from KAIO Reporting Station
Overcast Overcast  
Wind Chill: 21°   Ceiling: 1300
Heat Index: 28°   Visibility: 10mi
Dew Point: 27°   Wind: 7mph
Humidity: 93%   Direction: 220°SW
Pressure: 30.02"   Gusts: NA
Location:  41.45°N, 94.76°W
Report Text: KAIO 260815Z AUTO 22006KT 10SM OVC013 M02/M03 A3002 RMK AO2
Loading
Personal Weather Stations






























Interactive Weather Map New forecast layout! Learn more

10-Day Weather Forecast

Advertisements
Track Severe Weather on mobile